M I D A S
Marine Information and Data Acquisition System
Tripno 876 of the Zeeleeuw from 2005-04-04 09:42:55 to 2005-04-04 11:08:42
Back to CruiseResearch ActivitiesStationsMapUnderway DataData graphs

EquipmentUnitsComment
TimeDGPSUTC
LatitudeDGPSDM.mWGS84
LongitudeDGPSDM.mWGS84
HeadingGyrodeg 
SOGDGPSknotsSpeed over ground
COGDGPSdegCourse over ground
DepthEcho soundermeters200 kHz
Missing or incorrect values are displayed as -999
Navigation data collected by the RV Zeeleeuw from 2005-04-04 09:26:23 to 2005-04-04 11:18:58
                                                                                    Next 1000 lines
Time Latitude Longitude Heading SOG COG Depth
2005-04-04 09:26:33 51°13.598 2°56.085 115.8 2.1 294 -999
2005-04-04 09:26:38 51°13.6 2°56.08 116.6 2.8 296 -999
2005-04-04 09:26:44 51°13.602 2°56.073 117 3 296 -999
2005-04-04 09:26:49 51°13.604 2°56.066 117.1 3.2 296 -999
2005-04-04 09:26:54 51°13.606 2°56.059 117.1 3.2 296 -999
2005-04-04 09:26:59 51°13.608 2°56.052 117.1 3.2 296 -999
2005-04-04 09:27:04 51°13.61 2°56.044 117.1 3.2 296 -999
2005-04-04 09:27:08 51°13.612 2°56.038 116.9 3.7 296 -999
2005-04-04 09:27:14 51°13.614 2°56.031 116.2 3.2 295 -999
2005-04-04 09:27:18 51°13.615 2°56.027 116 2.8 297 -999
2005-04-04 09:27:24 51°13.617 2°56.022 116.1 2.2 296 -999
2005-04-04 09:27:29 51°13.618 2°56.019 116.6 2.2 296 -999
2005-04-04 09:27:34 51°13.619 2°56.017 117.1 1.5 295 -999
2005-04-04 09:27:38 51°13.619 2°56.016 117.6 1.5 295 11.1
2005-04-04 09:27:42 51°13.62 2°56.015 118.1 0.3 298 11.1
2005-04-04 09:27:48 51°13.619 2°56.016 119.1 0.3 298 11.1
2005-04-04 09:27:53 51°13.619 2°56.018 121 0.6 124 11.1
2005-04-04 09:27:58 51°13.618 2°56.02 123.2 0.6 124 11.2
2005-04-04 09:28:04 51°13.616 2°56.024 127.6 0.6 124 -999
2005-04-04 09:28:08 51°13.615 2°56.026 132 1.6 126 -999
2005-04-04 09:28:14 51°13.613 2°56.03 134.9 1.9 129 -999
2005-04-04 09:28:18 51°13.611 2°56.033 136.4 2.1 131 -999
2005-04-04 09:28:24 51°13.608 2°56.038 137.7 2.3 131 11.1
2005-04-04 09:28:28 51°13.606 2°56.041 138.6 2.4 132 11.1
2005-04-04 09:28:34 51°13.603 2°56.046 139.3 2.5 134 11.1
2005-04-04 09:28:38 51°13.601 2°56.05 139.5 2.7 133 11.1
2005-04-04 09:28:43 51°13.598 2°56.055 139.5 2.8 134 11.1
2005-04-04 09:28:48 51°13.595 2°56.06 139.3 2.8 134 11
2005-04-04 09:28:53 51°13.592 2°56.066 138.9 3.2 132 11.1
2005-04-04 09:28:58 51°13.59 2°56.07 138.5 3.2 132 11.1
2005-04-04 09:29:03 51°13.586 2°56.076 138.1 3.1 132 11.1
2005-04-04 09:29:08 51°13.584 2°56.081 137.9 3.1 132 11.1
2005-04-04 09:29:13 51°13.58 2°56.086 137.9 3.1 133 11.1
2005-04-04 09:29:18 51°13.578 2°56.091 137.9 3.1 133 11.1
2005-04-04 09:29:23 51°13.574 2°56.096 138.4 3.1 133 11.1
2005-04-04 09:29:28 51°13.572 2°56.101 138.5 3.1 133 11
2005-04-04 09:29:33 51°13.569 2°56.106 137.8 2.9 132 11.1
2005-04-04 09:29:38 51°13.567 2°56.11 136.3 2.9 130 11.1
2005-04-04 09:29:43 51°13.564 2°56.116 134.1 2.8 128 11.1
2005-04-04 09:29:48 51°13.562 2°56.121 131.3 2.8 128 11.2
2005-04-04 09:29:53 51°13.56 2°56.126 128.1 3 123 11.1
2005-04-04 09:29:58 51°13.558 2°56.132 126.1 3.2 122 11.1
2005-04-04 09:30:01 51°13.556 2°56.137 124.6 3.4 121 11.1
2005-04-04 09:30:08 51°13.553 2°56.146 123.7 3.4 121 11.1
2005-04-04 09:30:12 51°13.551 2°56.151 122.8 3.4 119 11.1
2005-04-04 09:30:18 51°13.549 2°56.159 121.9 3.4 119 11.1
2005-04-04 09:30:23 51°13.547 2°56.166 120.4 3.4 119 11.1
2005-04-04 09:30:28 51°13.545 2°56.174 116.9 3.4 113 11.1
2005-04-04 09:30:33 51°13.544 2°56.181 110.9 3.5 107 11.2
2005-04-04 09:30:38 51°13.544 2°56.19 106.2 3.5 107 11.1
2005-04-04 09:30:43 51°13.544 2°56.197 99.8 3.6 92 11.2
2005-04-04 09:30:48 51°13.545 2°56.204 92.9 3.6 92 11.2
2005-04-04 09:30:53 51°13.545 2°56.21 87 3.1 83 11.1
2005-04-04 09:30:58 51°13.546 2°56.214 83.7 2.5 82 10.5
2005-04-04 09:31:03 51°13.546 2°56.217 80.1 1.7 77 10.6
2005-04-04 09:31:08 51°13.546 2°56.218 75.2 0.9 74 10.6
2005-04-04 09:31:12 51°13.546 2°56.219 71.1 0.7 74 10.6
2005-04-04 09:31:18 51°13.545 2°56.218 69.3 0.2 221 10.6
2005-04-04 09:31:23 51°13.545 2°56.216 68.2 0.8 240 10.6
2005-04-04 09:31:28 51°13.544 2°56.214 67.6 1 240 10.5
2005-04-04 09:31:33 51°13.543 2°56.211 67.2 1.3 246 -999
2005-04-04 09:31:38 51°13.543 2°56.209 67.2 1.1 248 -999
2005-04-04 09:31:44 51°13.542 2°56.208 67.5 1 249 -999
2005-04-04 09:31:48 51°13.542 2°56.209 67 1 249 -999
2005-04-04 09:31:54 51°13.544 2°56.211 63.5 1 50 -999
2005-04-04 09:31:58 51°13.545 2°56.214 57.6 1.5 55 -999
2005-04-04 09:32:04 51°13.546 2°56.216 50.8 1.6 56 -999
2005-04-04 09:32:08 51°13.547 2°56.217 46.4 1.6 56 -999
2005-04-04 09:32:14 51°13.548 2°56.218 42.9 0.7 40 -999
2005-04-04 09:32:19 51°13.548 2°56.219 41 0.3 43 -999
2005-04-04 09:32:24 51°13.548 2°56.218 39 0.1 149 -999
2005-04-04 09:32:29 51°13.547 2°56.217 37.9 0.5 218 -999
2005-04-04 09:32:34 51°13.546 2°56.217 37.4 0.5 218 -999
2005-04-04 09:32:38 51°13.547 2°56.217 36.7 0.5 218 -999
2005-04-04 09:32:44 51°13.548 2°56.218 34.8 0.5 218 -999
2005-04-04 09:32:49 51°13.549 2°56.219 30.3 0.9 23 -999
2005-04-04 09:32:54 51°13.55 2°56.219 25.4 1.1 21 -999
2005-04-04 09:32:58 51°13.551 2°56.22 21.1 0.5 28 -999
2005-04-04 09:33:04 51°13.55 2°56.22 17.7 0.1 218 -999
2005-04-04 09:33:08 51°13.549 2°56.22 15.2 0.1 218 -999
2005-04-04 09:33:14 51°13.548 2°56.219 12.9 0.8 182 -999
2005-04-04 09:33:19 51°13.545 2°56.219 11.3 0.8 182 -999
2005-04-04 09:33:24 51°13.543 2°56.219 10.2 1.6 186 -999
2005-04-04 09:33:28 51°13.542 2°56.219 9.7 1.5 185 -999
2005-04-04 09:33:34 51°13.541 2°56.218 9.6 0.9 190 -999
2005-04-04 09:33:39 51°13.541 2°56.219 7.8 0.5 188 -999
2005-04-04 09:33:44 51°13.543 2°56.219 4.3 0.9 350 -999
2005-04-04 09:33:48 51°13.544 2°56.219 358.2 0.9 350 -999
2005-04-04 09:33:54 51°13.546 2°56.218 351.9 1.1 341 -999
2005-04-04 09:33:58 51°13.546 2°56.218 348.2 0.9 350 -999
2005-04-04 09:34:04 51°13.546 2°56.219 344.7 0.1 343 -999
2005-04-04 09:34:08 51°13.546 2°56.22 342.3 0.4 106 -999
2005-04-04 09:34:14 51°13.545 2°56.22 340.2 0.7 150 -999
2005-04-04 09:34:18 51°13.544 2°56.222 339 1.1 139 -999
2005-04-04 09:34:24 51°13.542 2°56.224 338 1.3 150 -999
2005-04-04 09:34:28 51°13.54 2°56.226 337.5 1.6 145 -999
2005-04-04 09:34:34 51°13.537 2°56.228 337 1.9 149 -999
2005-04-04 09:34:39 51°13.535 2°56.231 336.8 2.1 148 -999
2005-04-04 09:34:44 51°13.532 2°56.233 336.8 2.2 149 -999
2005-04-04 09:34:49 51°13.53 2°56.235 337.5 2.1 150 -999
2005-04-04 09:34:54 51°13.528 2°56.237 338.2 2.1 150 -999
2005-04-04 09:34:58 51°13.527 2°56.238 338.5 1.4 151 -999
2005-04-04 09:35:04 51°13.527 2°56.238 336.7 0.3 167 -999
2005-04-04 09:35:08 51°13.528 2°56.237 333.2 0.3 167 -999
2005-04-04 09:35:14 51°13.529 2°56.236 328.1 0.6 316 -999
2005-04-04 09:35:19 51°13.53 2°56.234 323.1 1.1 327 -999
2005-04-04 09:35:24 51°13.532 2°56.231 317.7 1.5 312 -999
2005-04-04 09:35:28 51°13.533 2°56.228 312.1 1.7 315 -999
2005-04-04 09:35:34 51°13.535 2°56.225 307 1.7 303 -999
2005-04-04 09:35:38 51°13.536 2°56.223 303.7 1.7 308 -999
2005-04-04 09:35:44 51°13.537 2°56.219 301.7 1.7 308 -999
2005-04-04 09:35:48 51°13.538 2°56.217 300.5 1.6 305 11.2
2005-04-04 09:35:54 51°13.54 2°56.214 299.7 1.6 305 6.3
2005-04-04 09:35:58 51°13.541 2°56.211 299.3 1.5 306 11.2
2005-04-04 09:36:04 51°13.542 2°56.208 298.8 1.5 301 -999
2005-04-04 09:36:08 51°13.543 2°56.205 298.1 1.5 304 11
2005-04-04 09:36:12 51°13.543 2°56.203 297.2 1.4 299 11.1
2005-04-04 09:36:18 51°13.545 2°56.2 296.3 1.5 299 11.2
2005-04-04 09:36:24 51°13.546 2°56.196 295.2 1.6 294 11.2
2005-04-04 09:36:28 51°13.547 2°56.193 294.1 1.7 295 11.2
2005-04-04 09:36:33 51°13.548 2°56.189 293.2 1.8 291 11.2
2005-04-04 09:36:37 51°13.548 2°56.185 292.8 1.8 291 11.2
2005-04-04 09:36:43 51°13.55 2°56.18 292.9 2.2 291 11.2
2005-04-04 09:36:48 51°13.551 2°56.175 293.9 2.3 293 11.1
2005-04-04 09:36:52 51°13.552 2°56.171 295.1 2.5 293 11.2
2005-04-04 09:36:57 51°13.554 2°56.165 296.4 2.6 293 11.1
2005-04-04 09:37:03 51°13.556 2°56.158 297.6 3 295 11.1
2005-04-04 09:37:08 51°13.558 2°56.152 298.6 3.1 297 11.1
2005-04-04 09:37:12 51°13.56 2°56.147 299.6 3.3 298 11
2005-04-04 09:37:17 51°13.562 2°56.14 300.4 3.4 299 10.9
2005-04-04 09:37:22 51°13.564 2°56.134 301.2 3.5 299 11.1
2005-04-04 09:37:28 51°13.567 2°56.126 301.7 3.6 300 11.1
2005-04-04 09:37:33 51°13.57 2°56.118 301.9 3.7 300 11.1
2005-04-04 09:37:37 51°13.572 2°56.112 302 3.7 300 11.1
2005-04-04 09:37:43 51°13.575 2°56.104 302.1 3.7 300 11.1
2005-04-04 09:37:48 51°13.578 2°56.097 302.1 3.7 300 11.1
2005-04-04 09:37:54 51°13.581 2°56.088 302 3.8 300 11.1
2005-04-04 09:37:58 51°13.583 2°56.082 301.9 3.9 300 11
2005-04-04 09:38:03 51°13.586 2°56.074 302.1 3.9 300 11
2005-04-04 09:38:08 51°13.589 2°56.066 302.6 4.1 301 11
2005-04-04 09:38:13 51°13.592 2°56.059 302.9 4.1 301 11
2005-04-04 09:38:18 51°13.595 2°56.051 303.1 4.3 301 11
2005-04-04 09:38:23 51°13.599 2°56.042 303.3 4.3 301 11
2005-04-04 09:38:28 51°13.602 2°56.034 303.4 4.5 301 11.1
2005-04-04 09:38:33 51°13.605 2°56.025 303.4 4.7 300 11
2005-04-04 09:38:37 51°13.608 2°56.017 303.4 4.7 300 11.1
2005-04-04 09:38:43 51°13.612 2°56.006 303.3 4.8 300 11
2005-04-04 09:38:48 51°13.615 2°55.997 303 4.9 300 11.1
2005-04-04 09:38:53 51°13.619 2°55.987 302.9 4.9 300 11.1
2005-04-04 09:38:58 51°13.622 2°55.979 303.5 4.9 300 11.1
2005-04-04 09:39:02 51°13.626 2°55.97 304.5 5.1 303 11.1
2005-04-04 09:39:08 51°13.63 2°55.959 305.6 5.1 303 11.1
2005-04-04 09:39:14 51°13.635 2°55.948 306.4 5.1 303 11.1
2005-04-04 09:39:18 51°13.638 2°55.94 307.1 5.1 303 10.9
2005-04-04 09:39:23 51°13.642 2°55.929 307.5 5.3 303 11
2005-04-04 09:39:28 51°13.647 2°55.919 307.1 5.3 303 10.9
2005-04-04 09:39:33 51°13.651 2°55.909 307 5.7 304 11
2005-04-04 09:39:38 51°13.656 2°55.897 307 5.7 304 10.9
2005-04-04 09:39:43 51°13.661 2°55.886 307.4 6.1 305 10.9
2005-04-04 09:39:48 51°13.665 2°55.875 308 6.3 305 10.9
2005-04-04 09:39:53 51°13.671 2°55.863 308.8 6.4 305 10.9
2005-04-04 09:39:58 51°13.676 2°55.852 309.5 6.4 305 10.9
2005-04-04 09:40:04 51°13.683 2°55.838 310.1 6.6 307 11.2
2005-04-04 09:40:08 51°13.687 2°55.827 310.9 6.7 308 11.3
2005-04-04 09:40:14 51°13.694 2°55.815 312 6.7 308 11.8
2005-04-04 09:40:18 51°13.699 2°55.804 312.5 6.8 310 12.7
2005-04-04 09:40:22 51°13.704 2°55.794 312.8 7 310 13.3
2005-04-04 09:40:28 51°13.711 2°55.781 313.2 7 310 13.6
2005-04-04 09:40:32 51°13.718 2°55.77 313.6 7.3 311 13.8
2005-04-04 09:40:38 51°13.725 2°55.757 314.4 7.3 311 13.6
2005-04-04 09:40:41 51°13.73 2°55.749 315.1 7.4 312 12.6
2005-04-04 09:40:48 51°13.74 2°55.733 315.6 7.5 313 11.9
2005-04-04 09:40:52 51°13.746 2°55.722 317.2 7.6 315 11.4
2005-04-04 09:40:58 51°13.755 2°55.709 319.3 7.6 315 11.5
2005-04-04 09:41:04 51°13.766 2°55.695 321.8 7.6 315 11.5
2005-04-04 09:41:08 51°13.773 2°55.687 324 7.8 321 11.7
2005-04-04 09:41:13 51°13.782 2°55.677 326.8 7.8 321 11.7
2005-04-04 09:41:18 51°13.79 2°55.669 329.3 7.7 326 11.6
2005-04-04 09:41:23 51°13.8 2°55.659 331.6 7.8 329 11.9
2005-04-04 09:41:28 51°13.809 2°55.652 333.7 7.8 329 11.9
2005-04-04 09:41:32 51°13.818 2°55.646 335.5 7.8 329 11.7
2005-04-04 09:41:38 51°13.829 2°55.637 337.5 7.8 334 11.8
2005-04-04 09:41:43 51°13.839 2°55.629 338.9 7.8 336 11.7
2005-04-04 09:41:48 51°13.849 2°55.622 339.4 7.8 335 11.8
2005-04-04 09:41:53 51°13.859 2°55.614 338.9 7.8 334 11.7
2005-04-04 09:41:58 51°13.867 2°55.608 338.5 7.8 334 11.9
2005-04-04 09:42:03 51°13.878 2°55.599 338.3 7.8 334 11.7
2005-04-04 09:42:08 51°13.887 2°55.592 338.3 7.8 334 11.7
2005-04-04 09:42:13 51°13.898 2°55.584 338 7.8 334 11.9
2005-04-04 09:42:18 51°13.907 2°55.577 337.5 7.9 334 11.8
2005-04-04 09:42:23 51°13.917 2°55.569 337.9 7.9 334 11.8
2005-04-04 09:42:28 51°13.926 2°55.563 338.5 7.9 335 11.8
2005-04-04 09:42:33 51°13.936 2°55.555 338.6 7.9 335 11.7
2005-04-04 09:42:37 51°13.945 2°55.548 338.6 7.9 335 11.8
2005-04-04 09:42:42 51°13.955 2°55.541 338.6 7.9 334 11.8
2005-04-04 09:42:48 51°13.966 2°55.533 338.9 7.9 335 11.9
2005-04-04 09:42:52 51°13.975 2°55.526 338.9 7.9 335 11.7
2005-04-04 09:42:58 51°13.986 2°55.518 338.9 7.9 335 11.7
2005-04-04 09:43:04 51°13.998 2°55.51 339.5 7.9 336 11.8
2005-04-04 09:43:08 51°14.007 2°55.503 339.7 8 336 11.5
2005-04-04 09:43:12 51°14.015 2°55.497 339.4 8.1 335 11.6
2005-04-04 09:43:18 51°14.027 2°55.489 339.3 8.1 335 11.5
2005-04-04 09:43:23 51°14.039 2°55.481 339.4 8.2 335 11.4
2005-04-04 09:43:28 51°14.049 2°55.473 339.6 8.2 335 11.1
2005-04-04 09:43:32 51°14.058 2°55.467 339.1 8.4 334 11.3
2005-04-04 09:43:38 51°14.07 2°55.457 338.3 8.4 334 11.3
2005-04-04 09:43:43 51°14.082 2°55.448 338.1 8.7 333 11.4
2005-04-04 09:43:48 51°14.092 2°55.44 338.9 9.1 335 11.4
2005-04-04 09:43:54 51°14.107 2°55.429 339 9.1 335 11.3
2005-04-04 09:43:58 51°14.117 2°55.421 339.2 9.6 335 11.5
2005-04-04 09:44:03 51°14.13 2°55.411 339.2 9.9 334 11.7
2005-04-04 09:44:08 51°14.142 2°55.4 338.1 9.9 334 12.2
2005-04-04 09:44:13 51°14.155 2°55.39 337.3 10 332 12.2
2005-04-04 09:44:17 51°14.165 2°55.382 337.3 10.1 333 12.9
2005-04-04 09:44:23 51°14.18 2°55.368 336.5 10.2 332 12.5
2005-04-04 09:44:28 51°14.191 2°55.358 334.8 10.3 330 12.5
2005-04-04 09:44:34 51°14.206 2°55.343 334.1 10.3 330 12.4
2005-04-04 09:44:38 51°14.215 2°55.332 331.8 10.4 328 12.6
2005-04-04 09:44:43 51°14.227 2°55.317 329 10.4 324 12.6
2005-04-04 09:44:48 51°14.238 2°55.301 325.3 10.5 319 12.6
2005-04-04 09:44:53 51°14.249 2°55.285 322.9 10.5 319 12.8
2005-04-04 09:44:58 51°14.259 2°55.268 321.2 10.5 316 12.3
2005-04-04 09:45:02 51°14.266 2°55.257 318.6 10.6 313 12.7
2005-04-04 09:45:08 51°14.278 2°55.236 317.3 10.6 313 12.3
2005-04-04 09:45:13 51°14.289 2°55.216 317.1 10.8 313 12.2
2005-04-04 09:45:18 51°14.299 2°55.2 316.4 11 313 12
2005-04-04 09:45:23 51°14.309 2°55.181 314.9 11.1 310 11.9
2005-04-04 09:45:28 51°14.319 2°55.161 314.4 11.3 310 12
2005-04-04 09:45:32 51°14.328 2°55.144 313.8 11.4 310 12.5
2005-04-04 09:45:38 51°14.34 2°55.12 313.4 11.5 309 12.4
2005-04-04 09:45:43 51°14.349 2°55.1 312.9 11.6 308 12.3
2005-04-04 09:45:48 51°14.358 2°55.081 312.2 11.6 308 12.3
2005-04-04 09:45:53 51°14.369 2°55.061 311.8 11.8 308 12
2005-04-04 09:45:58 51°14.379 2°55.04 312.5 12 309 12.2
2005-04-04 09:46:03 51°14.391 2°55.016 312.1 12.2 308 12.2
2005-04-04 09:46:08 51°14.401 2°54.994 310.9 12.3 307 12.3
2005-04-04 09:46:13 51°14.411 2°54.972 310.4 12.4 307 12.3
2005-04-04 09:46:18 51°14.42 2°54.952 309.5 12.4 307 12.3
2005-04-04 09:46:23 51°14.43 2°54.929 308.6 12.5 305 12.4
2005-04-04 09:46:28 51°14.441 2°54.905 307.7 12.5 305 12.4
2005-04-04 09:46:33 51°14.451 2°54.884 307 12.6 305 12.3
2005-04-04 09:46:38 51°14.461 2°54.862 306.9 12.6 305 12.4
2005-04-04 09:46:42 51°14.469 2°54.844 306.5 12.5 305 12.3
2005-04-04 09:46:48 51°14.481 2°54.817 306.2 12.5 305 12.3
2005-04-04 09:46:53 51°14.491 2°54.792 305.5 12.4 305 12.2
2005-04-04 09:46:58 51°14.5 2°54.772 304.7 12.4 305 12.2
2005-04-04 09:47:03 51°14.511 2°54.747 304.6 12.4 304 12.2
2005-04-04 09:47:08 51°14.52 2°54.727 304.6 12.3 305 12.1
2005-04-04 09:47:13 51°14.53 2°54.703 304.6 12.2 305 12.1
2005-04-04 09:47:18 51°14.539 2°54.683 304.6 12.2 305 12.1
2005-04-04 09:47:23 51°14.549 2°54.658 304.4 12.2 304 12.1
2005-04-04 09:47:28 51°14.559 2°54.636 304.1 12.2 304 12
2005-04-04 09:47:33 51°14.568 2°54.614 304.2 12.2 305 11.9
2005-04-04 09:47:38 51°14.578 2°54.591 304.3 12.1 304 12
2005-04-04 09:47:42 51°14.584 2°54.576 304.3 12.1 304 11.9
2005-04-04 09:47:48 51°14.596 2°54.549 304.1 12.2 304 11.9
2005-04-04 09:47:53 51°14.605 2°54.527 304.1 12.2 304 12
2005-04-04 09:47:58 51°14.616 2°54.502 304.1 12.2 304 11.9
2005-04-04 09:48:03 51°14.624 2°54.48 303.6 12.1 302 12
2005-04-04 09:48:08 51°14.633 2°54.457 302.2 12.1 301 12
2005-04-04 09:48:12 51°14.64 2°54.438 301.2 12.1 301 12
2005-04-04 09:48:18 51°14.649 2°54.413 300.8 12.1 301 12
2005-04-04 09:48:22 51°14.656 2°54.395 300.4 12.1 300 12.1
2005-04-04 09:48:28 51°14.666 2°54.365 300.2 12 300 12
2005-04-04 09:48:33 51°14.674 2°54.341 299.9 12.1 299 12
2005-04-04 09:48:38 51°14.682 2°54.32 299.7 12.1 299 12
2005-04-04 09:48:43 51°14.691 2°54.295 299.6 12.1 299 12.1
2005-04-04 09:48:48 51°14.699 2°54.271 299.6 12.1 299 12.1
2005-04-04 09:48:52 51°14.705 2°54.252 299.7 12.1 298 12.1
2005-04-04 09:48:58 51°14.713 2°54.226 297.7 12 296 12.1
2005-04-04 09:49:02 51°14.72 2°54.204 296.1 12 295 12
2005-04-04 09:49:08 51°14.727 2°54.175 294.9 12 293 12
2005-04-04 09:49:13 51°14.734 2°54.15 293.7 12 293 11.9
2005-04-04 09:49:18 51°14.739 2°54.128 292.9 12 293 12
2005-04-04 09:49:23 51°14.746 2°54.101 292.5 12 292 11.9
2005-04-04 09:49:28 51°14.752 2°54.078 292 12 291 11.9
2005-04-04 09:49:33 51°14.758 2°54.051 291.7 12 291 11.8
2005-04-04 09:49:38 51°14.763 2°54.029 291.5 12 291 11.8
2005-04-04 09:49:44 51°14.771 2°53.999 291.2 12 291 11.7
2005-04-04 09:49:48 51°14.776 2°53.977 291.4 12 291 11.6
2005-04-04 09:49:52 51°14.781 2°53.957 291.5 12 291 11.5
2005-04-04 09:49:58 51°14.787 2°53.93 291.6 12.1 291 11.5
2005-04-04 09:50:03 51°14.793 2°53.902 291.2 12 288 11.5
2005-04-04 09:50:08 51°14.797 2°53.876 289.9 12 288 11.5
2005-04-04 09:50:12 51°14.799 2°53.855 286.2 12 281 11.6
2005-04-04 09:50:18 51°14.802 2°53.827 283 12 280 11.6
2005-04-04 09:50:23 51°14.804 2°53.798 280.5 12 276 11.6
2005-04-04 09:50:28 51°14.806 2°53.771 278.7 12 276 11.8
2005-04-04 09:50:33 51°14.807 2°53.745 277.2 12.1 274 12
2005-04-04 09:50:38 51°14.808 2°53.721 276.2 12.1 274 12.1
2005-04-04 09:50:43 51°14.809 2°53.691 275.7 12.1 273 12.1
2005-04-04 09:50:48 51°14.81 2°53.664 275.4 12.1 273 12
2005-04-04 09:50:53 51°14.811 2°53.637 275.3 12.1 273 12.1
2005-04-04 09:50:58 51°14.812 2°53.613 275.3 12.1 273 12.2
2005-04-04 09:51:03 51°14.813 2°53.583 275.3 12.1 273 12.2
2005-04-04 09:51:08 51°14.814 2°53.559 275.6 12.2 273 12.3
2005-04-04 09:51:13 51°14.815 2°53.53 275.8 12.2 273 12.3
2005-04-04 09:51:17 51°14.816 2°53.508 275.9 12.2 274 12.3
2005-04-04 09:51:23 51°14.817 2°53.476 275.9 12.2 274 12.4
2005-04-04 09:51:28 51°14.818 2°53.449 275.8 12.2 273 12.4
2005-04-04 09:51:33 51°14.819 2°53.424 275.6 12.2 273 12.4
2005-04-04 09:51:37 51°14.82 2°53.401 275.4 12.2 273 12.4
2005-04-04 09:51:43 51°14.819 2°53.368 274 12.1 269 12.5
2005-04-04 09:51:48 51°14.819 2°53.342 272.1 12.1 269 12.5
2005-04-04 09:51:53 51°14.818 2°53.315 270.7 12.2 267 12.4
2005-04-04 09:51:58 51°14.817 2°53.291 269.4 12.2 267 12.5
2005-04-04 09:52:04 51°14.815 2°53.258 268.5 12.2 266 12.5
2005-04-04 09:52:08 51°14.814 2°53.237 267.9 12.2 265 12.5
2005-04-04 09:52:13 51°14.813 2°53.207 267.8 12.2 265 12.6
2005-04-04 09:52:18 51°14.811 2°53.183 267.5 12.2 265 12.4
2005-04-04 09:52:24 51°14.81 2°53.151 267.4 12.2 265 12.2
2005-04-04 09:52:28 51°14.809 2°53.129 267.3 12.3 265 12
2005-04-04 09:52:33 51°14.807 2°53.1 267.3 12.2 265 11.9
2005-04-04 09:52:38 51°14.806 2°53.075 267.2 12.2 265 11.6
2005-04-04 09:52:42 51°14.805 2°53.054 267.1 12.2 265 11.6
2005-04-04 09:52:48 51°14.803 2°53.019 267 12.2 265 11.6
2005-04-04 09:52:53 51°14.802 2°52.992 267.3 12.2 265 11.5
2005-04-04 09:52:58 51°14.801 2°52.968 267.6 12.2 266 11.4
2005-04-04 09:53:04 51°14.799 2°52.935 267.7 12.2 266 11.5
2005-04-04 09:53:08 51°14.798 2°52.911 268 12.2 266 11.5
2005-04-04 09:53:13 51°14.797 2°52.884 268 12.2 266 11.5
2005-04-04 09:53:18 51°14.796 2°52.86 268 12.2 266 11.4
2005-04-04 09:53:23 51°14.795 2°52.833 268 12.2 266 11.5
2005-04-04 09:53:28 51°14.794 2°52.803 268 12.3 267 11.5
2005-04-04 09:53:34 51°14.793 2°52.773 268 12.3 266 11.5
2005-04-04 09:53:38 51°14.792 2°52.752 268.2 12.3 267 11.5
2005-04-04 09:53:44 51°14.791 2°52.719 268.2 12.4 267 11.5
2005-04-04 09:53:48 51°14.79 2°52.694 268.2 12.4 267 11.5
2005-04-04 09:53:53 51°14.789 2°52.667 268.1 12.4 266 11.5
2005-04-04 09:53:58 51°14.788 2°52.643 268 12.4 266 11.5
2005-04-04 09:54:03 51°14.786 2°52.613 267.8 12.4 266 11.5
2005-04-04 09:54:08 51°14.785 2°52.586 267.7 12.4 266 11.5
2005-04-04 09:54:12 51°14.784 2°52.564 267.2 12.3 265 11.5
2005-04-04 09:54:18 51°14.782 2°52.534 267.3 12.3 266 11.6
2005-04-04 09:54:24 51°14.781 2°52.501 267.6 12.3 266 11.6
2005-04-04 09:54:28 51°14.78 2°52.48 268.2 12.4 267 11.6
2005-04-04 09:54:34 51°14.779 2°52.447 268.5 12.4 267 11.6
2005-04-04 09:54:38 51°14.778 2°52.425 268.6 12.4 267 11.6
2005-04-04 09:54:43 51°14.778 2°52.395 268.8 12.3 267 11.6
2005-04-04 09:54:48 51°14.777 2°52.37 269.2 12.3 267 11.6
2005-04-04 09:54:53 51°14.777 2°52.346 270.2 11.2 269 11.7
2005-04-04 09:54:58 51°14.777 2°52.326 271 11.2 269 11.7
2005-04-04 09:55:04 51°14.778 2°52.302 272.3 9.5 273 11.8
2005-04-04 09:55:08 51°14.779 2°52.285 274.2 8.9 274 11.8
2005-04-04 09:55:12 51°14.781 2°52.271 276.3 8.5 276 11.9
2005-04-04 09:55:17 51°14.783 2°52.254 278.6 8.1 278 11.9
2005-04-04 09:55:23 51°14.785 2°52.235 280.1 7.3 281 12
2005-04-04 09:55:28 51°14.786 2°52.22 280.3 7.3 281 12
2005-04-04 09:55:33 51°14.787 2°52.206 278.9 6.5 278 12
2005-04-04 09:55:38 51°14.788 2°52.194 276.8 6.3 277 12.1
2005-04-04 09:55:43 51°14.788 2°52.18 274.1 5.9 273 12.1
2005-04-04 09:55:48 51°14.788 2°52.168 271 5.8 270 12.1
2005-04-04 09:55:53 51°14.787 2°52.156 267.7 5.6 268 12.1
2005-04-04 09:55:58 51°14.786 2°52.144 264.1 5.6 268 12
2005-04-04 09:56:04 51°14.785 2°52.132 260.6 5.6 268 12.1
2005-04-04 09:56:08 51°14.783 2°52.122 257.8 5 256 12.1
2005-04-04 09:56:13 51°14.781 2°52.113 253.9 4.8 253 12.1
2005-04-04 09:56:18 51°14.779 2°52.104 250.7 4.7 252 12.1
2005-04-04 09:56:23 51°14.776 2°52.094 247.7 4.5 246 12.2
2005-04-04 09:56:28 51°14.773 2°52.087 244.6 4.3 244 12.2
2005-04-04 09:56:33 51°14.77 2°52.078 242.3 4.1 242 12.1
2005-04-04 09:56:38 51°14.768 2°52.071 241.6 4 242 12.1
2005-04-04 09:56:44 51°14.765 2°52.063 241.6 3.8 242 12.2
2005-04-04 09:56:48 51°14.763 2°52.056 241.7 3.7 242 12.2
2005-04-04 09:56:53 51°14.761 2°52.05 242 3.5 242 12.1
2005-04-04 09:56:58 51°14.759 2°52.044 242.2 3.5 242 12.1
2005-04-04 09:57:04 51°14.756 2°52.036 242.4 3.5 242 12.1
2005-04-04 09:57:08 51°14.755 2°52.03 242.8 3.2 243 12.2
2005-04-04 09:57:13 51°14.753 2°52.024 243.6 3.2 243 12.1
2005-04-04 09:57:17 51°14.751 2°52.02 244 3.1 245 12.2
2005-04-04 09:57:23 51°14.75 2°52.012 244.6 3 244 12.2
2005-04-04 09:57:28 51°14.748 2°52.007 245.6 2.9 246 12.2
2005-04-04 09:57:32 51°14.747 2°52.002 246.5 2.8 248 12.1
2005-04-04 09:57:38 51°14.745 2°51.996 247.2 2.7 247 12.2
2005-04-04 09:57:43 51°14.744 2°51.99 247.7 2.7 251 12.2
2005-04-04 09:57:48 51°14.743 2°51.985 248.2 2.6 248 12.1
2005-04-04 09:57:53 51°14.742 2°51.98 248.6 2.6 253 12.1
2005-04-04 09:57:58 51°14.74 2°51.974 248.8 2.6 249 12.1
2005-04-04 09:58:02 51°14.739 2°51.97 249 2.6 253 12.2
2005-04-04 09:58:08 51°14.738 2°51.963 249.1 2.6 250 12.1
2005-04-04 09:58:13 51°14.737 2°51.957 249.4 2.6 254 12.1
2005-04-04 09:58:18 51°14.736 2°51.952 249.4 2.6 251 12.1
2005-04-04 09:58:23 51°14.735 2°51.946 249.6 2.6 251 12.1
2005-04-04 09:58:28 51°14.734 2°51.941 249.7 2.6 252 12.1
2005-04-04 09:58:32 51°14.733 2°51.936 250 2.7 254 12.1
2005-04-04 09:58:38 51°14.732 2°51.93 250.4 2.7 254 12.1
2005-04-04 09:58:44 51°14.73 2°51.923 250.9 2.7 255 12.1
2005-04-04 09:58:48 51°14.73 2°51.917 251.3 2.7 255 12.1
2005-04-04 09:58:52 51°14.729 2°51.913 251.8 2.8 255 12
2005-04-04 09:58:58 51°14.728 2°51.906 252.3 2.8 255 12.1
2005-04-04 09:59:03 51°14.727 2°51.899 253.1 2.8 255 12.1
2005-04-04 09:59:08 51°14.726 2°51.893 253.8 2.8 258 12.1
2005-04-04 09:59:13 51°14.725 2°51.887 254.4 2.9 258 12.1
2005-04-04 09:59:18 51°14.725 2°51.881 255.2 2.9 260 12.1
2005-04-04 09:59:22 51°14.724 2°51.876 256.4 2.9 261 12.1
2005-04-04 09:59:28 51°14.723 2°51.868 257.4 2.9 262 12
2005-04-04 09:59:34 51°14.723 2°51.861 258.2 2.9 262 12.1
2005-04-04 09:59:38 51°14.723 2°51.855 258.7 2.9 262 12.1
2005-04-04 09:59:44 51°14.722 2°51.848 259.5 3 265 12.1
2005-04-04 09:59:48 51°14.722 2°51.842 260 3 265 12.1
2005-04-04 09:59:53 51°14.722 2°51.835 260.7 3 265 12.2
2005-04-04 09:59:58 51°14.721 2°51.829 261.2 3 267 12.1
2005-04-04 10:00:02 51°14.721 2°51.823 261.7 3 267 12.1
2005-04-04 10:00:08 51°14.721 2°51.815 262.1 3 268 12.1
2005-04-04 10:00:13 51°14.721 2°51.809 262.7 3 268 12.1
2005-04-04 10:00:18 51°14.721 2°51.802 263 3 269 12.1
2005-04-04 10:00:22 51°14.721 2°51.797 263.3 3 269 12.1
2005-04-04 10:00:28 51°14.721 2°51.789 263.4 3 269 12.2
2005-04-04 10:00:33 51°14.721 2°51.782 263.4 3 269 12.1
2005-04-04 10:00:38 51°14.721 2°51.776 263 3 269 12.2
2005-04-04 10:00:42 51°14.72 2°51.77 262.7 3 268 12.2
2005-04-04 10:00:48 51°14.72 2°51.762 262.3 3 268 12.2
2005-04-04 10:00:53 51°14.72 2°51.756 261.8 3 267 12.2
2005-04-04 10:00:58 51°14.72 2°51.749 261.2 2.9 267 12.2
2005-04-04 10:01:03 51°14.719 2°51.743 260.2 2.9 265 12.2
2005-04-04 10:01:08 51°14.719 2°51.736 259.3 2.9 265 12.3
2005-04-04 10:01:13 51°14.718 2°51.73 258.7 2.9 264 12.2
2005-04-04 10:01:18 51°14.718 2°51.724 257.6 2.9 264 12.2
2005-04-04 10:01:23 51°14.717 2°51.717 256.6 2.9 261 12.2
2005-04-04 10:01:28 51°14.717 2°51.711 255.7 2.9 261 12.2
2005-04-04 10:01:33 51°14.716 2°51.705 254.8 2.8 259 12.2
2005-04-04 10:01:38 51°14.715 2°51.7 254.1 2.8 259 12.2
2005-04-04 10:01:42 51°14.714 2°51.695 253.1 2.8 256 12.2
2005-04-04 10:01:48 51°14.713 2°51.687 252.2 2.8 257 12.3
2005-04-04 10:01:53 51°14.712 2°51.681 251.8 2.8 255 12.2
2005-04-04 10:01:58 51°14.711 2°51.676 251.1 2.8 255 12.3
2005-04-04 10:02:04 51°14.71 2°51.669 250.6 2.8 255 12.2
2005-04-04 10:02:08 51°14.709 2°51.663 250.3 2.8 254 12.3
2005-04-04 10:02:13 51°14.708 2°51.657 249.8 2.8 254 12.2
2005-04-04 10:02:18 51°14.706 2°51.652 249.5 2.8 253 12.3
2005-04-04 10:02:23 51°14.705 2°51.646 249.1 2.8 251 12.3
2005-04-04 10:02:28 51°14.704 2°51.641 248.9 2.8 250 12.2
2005-04-04 10:02:33 51°14.702 2°51.634 248.3 2.8 249 12.3
2005-04-04 10:02:38 51°14.701 2°51.628 248.2 2.8 249 12.3
2005-04-04 10:02:43 51°14.7 2°51.623 248 2.8 249 12.3
2005-04-04 10:02:48 51°14.698 2°51.616 247.8 2.8 249 12.3
2005-04-04 10:02:52 51°14.697 2°51.612 247.5 2.9 249 12.3
2005-04-04 10:02:58 51°14.695 2°51.605 247.5 2.9 248 12.3
2005-04-04 10:03:03 51°14.694 2°51.599 247.4 2.9 249 12.2
2005-04-04 10:03:08 51°14.692 2°51.593 247.4 2.9 249 12.3
2005-04-04 10:03:13 51°14.691 2°51.587 247.4 2.9 249 12.3
2005-04-04 10:03:18 51°14.689 2°51.581 247.4 2.9 249 12.3
2005-04-04 10:03:22 51°14.688 2°51.577 247.5 2.9 249 12.3
2005-04-04 10:03:28 51°14.686 2°51.569 247.5 2.9 249 12.3
2005-04-04 10:03:33 51°14.685 2°51.563 247.5 2.9 248 12.3
2005-04-04 10:03:38 51°14.684 2°51.558 247.3 2.9 249 12.3
2005-04-04 10:03:43 51°14.682 2°51.551 247.3 2.9 247 12.3
2005-04-04 10:03:48 51°14.681 2°51.545 247.3 2.9 249 12.3
2005-04-04 10:03:52 51°14.679 2°51.54 247.2 2.9 248 12.3
2005-04-04 10:03:58 51°14.678 2°51.534 247.2 2.9 249 12.3
2005-04-04 10:04:03 51°14.676 2°51.527 247 2.9 249 12.2
2005-04-04 10:04:08 51°14.675 2°51.522 247 2.9 249 12.3
2005-04-04 10:04:13 51°14.673 2°51.515 246.9 2.9 249 12.3
2005-04-04 10:04:18 51°14.672 2°51.51 247 2.9 249 12.3
2005-04-04 10:04:22 51°14.67 2°51.505 246.9 2.9 248 12.3
2005-04-04 10:04:28 51°14.669 2°51.497 246.9 2.9 250 12.3
2005-04-04 10:04:33 51°14.667 2°51.492 246.9 2.9 248 12.3
2005-04-04 10:04:38 51°14.666 2°51.486 247.1 2.9 250 12.3
2005-04-04 10:04:43 51°14.664 2°51.479 247.2 2.9 251 12.3
2005-04-04 10:04:48 51°14.663 2°51.474 247.5 2.9 251 12.3
2005-04-04 10:04:53 51°14.661 2°51.468 247.9 2.9 250 12.2
2005-04-04 10:04:58 51°14.66 2°51.462 248.2 2.9 250 12.3
2005-04-04 10:05:03 51°14.659 2°51.456 248.7 2.9 250 12.3
2005-04-04 10:05:08 51°14.658 2°51.45 249.1 2.9 250 12.2
2005-04-04 10:05:13 51°14.656 2°51.443 249.6 2.9 251 12.2
2005-04-04 10:05:18 51°14.655 2°51.438 250 2.9 251 12.2
2005-04-04 10:05:22 51°14.655 2°51.433 250.4 2.9 254 12.2
2005-04-04 10:05:28 51°14.653 2°51.425 250.9 2.9 254 12.3
2005-04-04 10:05:34 51°14.652 2°51.418 251.5 2.9 254 12.3
2005-04-04 10:05:38 51°14.651 2°51.413 252 2.9 254 12.2
2005-04-04 10:05:43 51°14.65 2°51.406 252.6 2.9 255 12.3
2005-04-04 10:05:48 51°14.649 2°51.4 253.2 2.9 256 12.2
2005-04-04 10:05:52 51°14.648 2°51.395 253.6 2.9 257 12.2
2005-04-04 10:05:57 51°14.647 2°51.388 254 2.9 257 12.2
2005-04-04 10:06:03 51°14.646 2°51.381 254.2 2.9 257 12.2
2005-04-04 10:06:08 51°14.645 2°51.375 254.2 2.9 258 12.2
2005-04-04 10:06:12 51°14.645 2°51.369 254.1 2.9 257 12.3
2005-04-04 10:06:18 51°14.643 2°51.363 253.9 2.9 257 12.2
2005-04-04 10:06:24 51°14.642 2°51.355 253.5 2.9 257 12.2
2005-04-04 10:06:28 51°14.641 2°51.35 253.3 2.9 257 12.2
2005-04-04 10:06:32 51°14.64 2°51.345 252.8 2.9 255 12.2
2005-04-04 10:06:39 51°14.639 2°51.336 252.3 2.9 256 12.2
2005-04-04 10:06:43 51°14.638 2°51.331 252 2.9 256 12.2
2005-04-04 10:06:48 51°14.637 2°51.324 251.6 2.9 254 12.2
2005-04-04 10:06:54 51°14.636 2°51.318 251.1 2.9 254 12.2
2005-04-04 10:06:58 51°14.635 2°51.312 250.6 2.9 254 12.3
2005-04-04 10:07:03 51°14.634 2°51.306 250.2 2.9 254 12.2
2005-04-04 10:07:08 51°14.633 2°51.3 249.8 2.9 252 12.3
2005-04-04 10:07:13 51°14.631 2°51.294 249.3 2.9 252 12.3
2005-04-04 10:07:18 51°14.63 2°51.288 248.9 2.9 251 12.2
2005-04-04 10:07:24 51°14.628 2°51.281 248.7 2.9 251 12.3
2005-04-04 10:07:28 51°14.627 2°51.276 248.4 2.9 251 12.3
2005-04-04 10:07:33 51°14.626 2°51.269 248.2 2.9 252 12.2
2005-04-04 10:07:38 51°14.625 2°51.263 248.2 2.9 250 12.3
2005-04-04 10:07:42 51°14.623 2°51.259 248.2 2.9 250 12.3
2005-04-04 10:07:48 51°14.622 2°51.251 248.2 2.9 250 12.3
2005-04-04 10:07:52 51°14.621 2°51.246 248.3 2.9 251 12.3
2005-04-04 10:07:57 51°14.619 2°51.24 248.4 2.9 251 12.3
2005-04-04 10:08:03 51°14.618 2°51.233 248.6 2.9 251 12.2
2005-04-04 10:08:08 51°14.616 2°51.227 248.5 2.9 251 12.3
2005-04-04 10:08:13 51°14.615 2°51.221 248.6 2.9 251 12.3
2005-04-04 10:08:18 51°14.614 2°51.214 248.7 2.9 251 12.3
2005-04-04 10:08:24 51°14.612 2°51.208 248.8 2.9 251 12.3
2005-04-04 10:08:28 51°14.611 2°51.202 248.9 2.9 251 12.3
2005-04-04 10:08:34 51°14.61 2°51.195 248.9 2.9 251 12.3
2005-04-04 10:08:38 51°14.609 2°51.191 249 3 251 12.2
2005-04-04 10:08:42 51°14.608 2°51.186 249.1 3 252 12.3
2005-04-04 10:08:48 51°14.606 2°51.178 249.3 3 252 12.3
2005-04-04 10:08:53 51°14.605 2°51.172 249.4 3 252 12.3
2005-04-04 10:08:57 51°14.604 2°51.166 249.6 3 252 12.4
2005-04-04 10:09:03 51°14.602 2°51.159 249.8 3 252 12.3
2005-04-04 10:09:08 51°14.601 2°51.153 250.1 3 252 12.3
2005-04-04 10:09:12 51°14.6 2°51.148 250.2 3 253 12.3
2005-04-04 10:09:18 51°14.598 2°51.14 250.4 3 252 12.3
2005-04-04 10:09:22 51°14.598 2°51.136 250.5 3 253 12.3
2005-04-04 10:09:28 51°14.596 2°51.128 250.6 3 253 12.2
2005-04-04 10:09:33 51°14.595 2°51.122 250.7 3 253 12.2
2005-04-04 10:09:38 51°14.594 2°51.115 250.8 3 253 12.2
2005-04-04 10:09:43 51°14.592 2°51.109 250.9 3 253 12.3
2005-04-04 10:09:48 51°14.591 2°51.102 250.9 3 254 12.2
2005-04-04 10:09:53 51°14.59 2°51.096 250.9 3 254 12.3
2005-04-04 10:09:58 51°14.589 2°51.09 250.9 3 254 12.2
2005-04-04 10:10:03 51°14.588 2°51.083 251.1 3 253 12.3
2005-04-04 10:10:08 51°14.587 2°51.077 251.1 3 254 12.3
2005-04-04 10:10:12 51°14.586 2°51.072 251.3 3 254 12.3
2005-04-04 10:10:18 51°14.585 2°51.065 251.4 3 255 12.3
2005-04-04 10:10:23 51°14.583 2°51.058 251.4 3 255 12.3
2005-04-04 10:10:28 51°14.582 2°51.052 251.6 3 255 12.3
2005-04-04 10:10:33 51°14.581 2°51.045 251.7 3 254 12.3
2005-04-04 10:10:38 51°14.58 2°51.039 251.8 3 255 12.2
2005-04-04 10:10:44 51°14.579 2°51.032 251.9 3 256 12.3
2005-04-04 10:10:48 51°14.578 2°51.026 252.1 3 255 12.3
2005-04-04 10:10:54 51°14.577 2°51.019 252.1 3 255 12.2
2005-04-04 10:10:58 51°14.576 2°51.014 252.3 3 256 12.2
2005-04-04 10:11:04 51°14.575 2°51.006 252.5 3 256 12.4
2005-04-04 10:11:08 51°14.574 2°51 252.5 3 256 12.2
2005-04-04 10:11:13 51°14.573 2°50.994 252.7 3 256 12.3
2005-04-04 10:11:18 51°14.572 2°50.988 253 3 256 12.3
2005-04-04 10:11:23 51°14.571 2°50.981 253.1 3 257 12.3
2005-04-04 10:11:28 51°14.57 2°50.975 253.2 3 257 12.3
2005-04-04 10:11:33 51°14.569 2°50.969 253.3 3 257 12.3
2005-04-04 10:11:38 51°14.568 2°50.963 253.4 3 258 12.3
2005-04-04 10:11:43 51°14.567 2°50.955 253.5 3 257 12.4
2005-04-04 10:11:48 51°14.567 2°50.949 253.7 3 257 12.3
2005-04-04 10:11:53 51°14.566 2°50.943 253.9 3 257 12.3
2005-04-04 10:11:58 51°14.565 2°50.937 254 3 258 12.3
2005-04-04 10:12:02 51°14.564 2°50.931 254.2 3 259 12.2
2005-04-04 10:12:08 51°14.563 2°50.923 254.2 3 260 12.3
2005-04-04 10:12:13 51°14.562 2°50.917 254.4 3 259 12.3
2005-04-04 10:12:18 51°14.562 2°50.911 254.6 3 259 12.3
2005-04-04 10:12:23 51°14.561 2°50.904 254.7 3 259 12.3
2005-04-04 10:12:28 51°14.56 2°50.897 254.7 3 259 12.3
2005-04-04 10:12:33 51°14.559 2°50.891 254.9 3 259 12.3
2005-04-04 10:12:38 51°14.559 2°50.885 255.2 3 260 12.3
2005-04-04 10:12:43 51°14.558 2°50.878 255.4 3 260 12.3
2005-04-04 10:12:48 51°14.558 2°50.871 255.5 3 260 12.3
2005-04-04 10:12:53 51°14.557 2°50.865 255.7 3 260 12.3
2005-04-04 10:12:58 51°14.557 2°50.858 256 3 260 12.3
2005-04-04 10:13:04 51°14.556 2°50.85 256.2 3 261 12.4
2005-04-04 10:13:08 51°14.556 2°50.844 256.2 3 262 12.4
2005-04-04 10:13:13 51°14.555 2°50.838 256.4 3 262 12.4
2005-04-04 10:13:18 51°14.555 2°50.832 256.4 3 261 12.4
2005-04-04 10:13:22 51°14.554 2°50.827 256.1 3 260 12.4
2005-04-04 10:13:28 51°14.553 2°50.819 255.7 3 260 12.4
2005-04-04 10:13:33 51°14.553 2°50.812 255.4 3 260 12.4
2005-04-04 10:13:38 51°14.552 2°50.806 254.8 3 260 12.4
2005-04-04 10:13:44 51°14.551 2°50.798 254.3 3 260 12.4
2005-04-04 10:13:48 51°14.55 2°50.793 253.9 3 260 12.4
2005-04-04 10:13:53 51°14.549 2°50.786 253.3 2.9 258 12.4
2005-04-04 10:13:58 51°14.548 2°50.781 252.6 2.9 258 12.4
2005-04-04 10:14:04 51°14.547 2°50.773 251.9 2.9 258 12.4
2005-04-04 10:14:08 51°14.546 2°50.768 251.3 2.9 255 12.4
2005-04-04 10:14:14 51°14.545 2°50.761 250.7 2.9 256 12.4
2005-04-04 10:14:18 51°14.544 2°50.756 250 2.9 254 12.4
2005-04-04 10:14:23 51°14.543 2°50.749 249.4 2.9 254 12.4
2005-04-04 10:14:28 51°14.542 2°50.743 248.8 2.9 252 12.4
2005-04-04 10:14:33 51°14.541 2°50.737 248.2 2.9 252 12.4
2005-04-04 10:14:38 51°14.54 2°50.731 247.4 2.9 251 12.4
2005-04-04 10:14:43 51°14.538 2°50.725 246.8 2.9 251 12.4
2005-04-04 10:14:48 51°14.537 2°50.719 246.1 2.9 250 12.4
2005-04-04 10:14:53 51°14.535 2°50.713 245.3 2.9 250 12.5
2005-04-04 10:14:58 51°14.534 2°50.707 244.7 2.9 250 12.4
2005-04-04 10:15:04 51°14.532 2°50.701 244.2 2.9 250 12.4
2005-04-04 10:15:08 51°14.53 2°50.696 243.5 2.9 247 12.4
2005-04-04 10:15:12 51°14.529 2°50.691 242.7 2.9 247 12.4
2005-04-04 10:15:18 51°14.527 2°50.685 242 2.9 244 12.4
2005-04-04 10:15:24 51°14.525 2°50.679 241.4 2.9 244 12.4
2005-04-04 10:15:28 51°14.523 2°50.673 240.9 2.9 242 12.4
2005-04-04 10:15:33 51°14.521 2°50.668 240.7 2.9 242 12.4
2005-04-04 10:15:38 51°14.52 2°50.663 240.6 2.9 242 12.4
2005-04-04 10:15:42 51°14.518 2°50.658 240.6 2.9 243 12.4
2005-04-04 10:15:48 51°14.516 2°50.651 240.6 2.9 243 12.3
2005-04-04 10:15:54 51°14.514 2°50.645 240.9 2.9 244 12.3
2005-04-04 10:15:58 51°14.513 2°50.64 241.3 2.9 243 12.4
2005-04-04 10:16:03 51°14.511 2°50.634 241.6 2.9 243 12.4
2005-04-04 10:16:08 51°14.509 2°50.628 242.2 2.9 244 12.4
2005-04-04 10:16:14 51°14.507 2°50.622 242.6 2.9 245 12.4
2005-04-04 10:16:18 51°14.506 2°50.617 243.1 2.9 245 12.4
2005-04-04 10:16:22 51°14.504 2°50.612 243.5 2.9 247 12.4
2005-04-04 10:16:28 51°14.502 2°50.605 244.1 2.9 247 12.4
2005-04-04 10:16:33 51°14.501 2°50.598 244.5 2.9 247 12.4
2005-04-04 10:16:38 51°14.499 2°50.593 245.1 2.9 247 12.4
2005-04-04 10:16:43 51°14.497 2°50.586 245.5 2.9 249 12.3
2005-04-04 10:16:48 51°14.496 2°50.581 246.1 2.9 249 12.4
2005-04-04 10:16:53 51°14.494 2°50.574 246.7 2.9 249 12.4
2005-04-04 10:16:58 51°14.493 2°50.569 247.2 2.9 250 12.3
2005-04-04 10:17:04 51°14.491 2°50.561 247.7 2.9 250 12.4
2005-04-04 10:17:08 51°14.49 2°50.556 248 2.9 250 12.3
2005-04-04 10:17:13 51°14.489 2°50.55 248.2 3 250 12.4
2005-04-04 10:17:18 51°14.487 2°50.544 248.4 2.9 251 12.3
2005-04-04 10:17:23 51°14.486 2°50.538 248.4 2.9 251 12.3
2005-04-04 10:17:28 51°14.485 2°50.531 248.5 2.9 251 12.3
2005-04-04 10:17:33 51°14.483 2°50.525 248.5 3 253 12.4
2005-04-04 10:17:38 51°14.482 2°50.519 248.5 3 253 12.4
2005-04-04 10:17:44 51°14.481 2°50.512 248.4 3 253 12.3
2005-04-04 10:17:48 51°14.479 2°50.507 248.3 2.9 251 12.4
2005-04-04 10:17:53 51°14.478 2°50.501 248.2 3 251 12.4
2005-04-04 10:17:58 51°14.477 2°50.495 248.2 3 251 12.3
2005-04-04 10:18:02 51°14.475 2°50.49 248.1 3 251 12.3
2005-04-04 10:18:08 51°14.474 2°50.482 248.1 2.9 251 12.4
2005-04-04 10:18:13 51°14.472 2°50.476 247.9 2.9 251 12.3
2005-04-04 10:18:18 51°14.471 2°50.47 247.8 3 251 12.3
2005-04-04 10:18:21 51°14.47 2°50.466 247.7 2.9 250 12.3
2005-04-04 10:18:28 51°14.469 2°50.457 247.6 2.9 251 12.4
2005-04-04 10:18:32 51°14.467 2°50.453 247.6 2.9 251 12.4
2005-04-04 10:18:39 51°14.466 2°50.444 247.5 2.9 251 12.4
2005-04-04 10:18:44 51°14.464 2°50.438 247.5 2.9 251 12.3
2005-04-04 10:18:48 51°14.463 2°50.433 247.4 2.9 251 12.3
2005-04-04 10:18:53 51°14.462 2°50.427 247.1 2.9 250 12.4
2005-04-04 10:18:58 51°14.46 2°50.421 246.9 2.9 250 12.3
2005-04-04 10:19:02 51°14.46 2°50.417 246.4 2.9 250 12.3
2005-04-04 10:19:08 51°14.457 2°50.409 245.9 2.9 247 12.4
2005-04-04 10:19:13 51°14.456 2°50.403 245.5 2.9 247 12.4
2005-04-04 10:19:18 51°14.454 2°50.397 245.1 2.9 246 12.3
2005-04-04 10:19:22 51°14.453 2°50.393 244.7 2.8 246 12.4
2005-04-04 10:19:28 51°14.451 2°50.386 244.4 2.8 246 12.3
2005-04-04 10:19:33 51°14.449 2°50.381 244.1 2.8 246 12.3
2005-04-04 10:19:38 51°14.448 2°50.375 243.8 2.8 246 12.3
2005-04-04 10:19:42 51°14.446 2°50.37 243.5 2.8 244 12.4
2005-04-04 10:19:48 51°14.444 2°50.363 243.1 2.8 244 12.4
2005-04-04 10:19:53 51°14.442 2°50.358 242.8 2.8 244 12.4
2005-04-04 10:19:58 51°14.441 2°50.353 242.7 2.8 243 12.4
2005-04-04 10:20:01 51°14.439 2°50.349 242.4 2.8 243 12.3
2005-04-04 10:20:08 51°14.437 2°50.341 242.2 2.8 242 12.4
2005-04-04 10:20:13 51°14.435 2°50.336 241.9 2.8 242 12.3
2005-04-04 10:20:18 51°14.433 2°50.33 241.8 2.8 242 12.3
2005-04-04 10:20:23 51°14.432 2°50.325 241.6 2.8 242 12.3
2005-04-04 10:20:28 51°14.43 2°50.319 241.5 2.8 242 12.3
2005-04-04 10:20:33 51°14.428 2°50.314 241.2 2.8 241 12.3
2005-04-04 10:20:38 51°14.426 2°50.309 241 2.8 243 12.4
2005-04-04 10:20:43 51°14.424 2°50.303 240.9 2.8 243 12.4
2005-04-04 10:20:48 51°14.422 2°50.297 240.8 2.8 242 12.4
2005-04-04 10:20:54 51°14.42 2°50.291 240.7 2.8 242 12.3
2005-04-04 10:20:58 51°14.419 2°50.287 240.5 2.8 241 12.3
2005-04-04 10:21:02 51°14.417 2°50.282 240.4 2.8 241 12.3
2005-04-04 10:21:08 51°14.415 2°50.275 240.4 2.8 241 12.3
2005-04-04 10:21:13 51°14.413 2°50.27 240.5 2.8 241 12.3
2005-04-04 10:21:18 51°14.411 2°50.265 240.6 2.8 241 12.3
2005-04-04 10:21:23 51°14.409 2°50.259 240.8 2.8 242 12.3
2005-04-04 10:21:28 51°14.408 2°50.253 241 2.8 242 12.4
2005-04-04 10:21:33 51°14.406 2°50.249 241.3 2.9 241 12.3
2005-04-04 10:21:38 51°14.405 2°50.244 241.6 2.9 243 12.3
2005-04-04 10:21:42 51°14.403 2°50.239 242 2.8 243 12.3
2005-04-04 10:21:48 51°14.401 2°50.232 242.3 2.8 243 12.3
2005-04-04 10:21:53 51°14.399 2°50.226 242.5 2.8 243 12.3
2005-04-04 10:21:58 51°14.397 2°50.22 242.8 2.9 243 12.3
2005-04-04 10:22:02 51°14.396 2°50.216 243.1 2.9 243 12.3
2005-04-04 10:22:08 51°14.393 2°50.208 243.4 2.9 243 12.3
2005-04-04 10:22:13 51°14.391 2°50.203 243.7 2.9 243 12.3
2005-04-04 10:22:18 51°14.39 2°50.197 243.9 2.9 245 12.3
2005-04-04 10:22:24 51°14.388 2°50.19 244.3 2.9 245 12.2
2005-04-04 10:22:28 51°14.386 2°50.186 244.5 2.9 245 12.2
2005-04-04 10:22:33 51°14.385 2°50.179 245 2.9 245 12.3
2005-04-04 10:22:38 51°14.383 2°50.174 245.3 2.9 246 12.3
2005-04-04 10:22:44 51°14.381 2°50.167 245.7 2.9 247 12.3
2005-04-04 10:22:48 51°14.38 2°50.162 246 2.9 247 12.2
2005-04-04 10:22:54 51°14.378 2°50.155 246.2 2.9 247 12.2
2005-04-04 10:22:58 51°14.377 2°50.15 246.7 2.9 247 12.2
2005-04-04 10:23:03 51°14.375 2°50.143 247 2.9 249 12.3
2005-04-04 10:23:08 51°14.373 2°50.137 247.3 2.9 249 12.2
2005-04-04 10:23:13 51°14.372 2°50.131 247.6 2.9 249 12.3
2005-04-04 10:23:18 51°14.371 2°50.126 248 2.9 249 12.2
2005-04-04 10:23:23 51°14.369 2°50.119 248.2 3 249 12.3
2005-04-04 10:23:28 51°14.367 2°50.113 248.4 3 249 12.3
2005-04-04 10:23:34 51°14.366 2°50.106 248.8 3 250 12.3
2005-04-04 10:23:38 51°14.365 2°50.101 249 2.9 250 12.2
2005-04-04 10:23:42 51°14.364 2°50.096 249.4 3 251 12.3
2005-04-04 10:23:48 51°14.361 2°50.088 249.6 3 251 12.3
2005-04-04 10:23:53 51°14.36 2°50.082 250 3 252 12.3
2005-04-04 10:23:58 51°14.359 2°50.076 250.2 3 252 12.3
2005-04-04 10:24:02 51°14.358 2°50.071 250.5 3 252 12.3
2005-04-04 10:24:08 51°14.356 2°50.063 250.9 3 252 12.3
2005-04-04 10:24:13 51°14.355 2°50.057 251.2 3 252 12.3
2005-04-04 10:24:18 51°14.354 2°50.051 251.6 3 253 12.3
2005-04-04 10:24:23 51°14.353 2°50.044 251.8 3 253 12.3
2005-04-04 10:24:28 51°14.352 2°50.038 251.8 3 253 12.3
2005-04-04 10:24:32 51°14.351 2°50.033 251.6 3 253 12.3
2005-04-04 10:24:37 51°14.349 2°50.027 251.2 3 252 12.3
2005-04-04 10:24:43 51°14.348 2°50.019 250.7 3 251 12.4
2005-04-04 10:24:48 51°14.347 2°50.013 250.4 3 251 12.3
2005-04-04 10:24:53 51°14.345 2°50.007 249.8 3 251 12.3
2005-04-04 10:24:58 51°14.344 2°50.001 249.4 3 251 12.4
2005-04-04 10:25:02 51°14.343 2°49.996 248.9 3 249 12.3
2005-04-04 10:25:08 51°14.341 2°49.988 248.2 3 248 12.3
2005-04-04 10:25:13 51°14.34 2°49.982 247.6 3 248 12.3
2005-04-04 10:25:18 51°14.338 2°49.977 247.1 3 248 12.3
2005-04-04 10:25:23 51°14.337 2°49.971 246.6 3 247 12.4
2005-04-04 10:25:28 51°14.335 2°49.965 245.8 2.9 247 12.3
2005-04-04 10:25:33 51°14.333 2°49.958 245.2 3 246 12.3
2005-04-04 10:25:38 51°14.331 2°49.953 244.5 3 246 12.4
2005-04-04 10:25:44 51°14.329 2°49.945 244 3 244 12.4
2005-04-04 10:25:48 51°14.327 2°49.94 243.4 3 244 12.4
2005-04-04 10:25:54 51°14.325 2°49.933 242.9 3 243 12.4
2005-04-04 10:25:58 51°14.323 2°49.929 242.3 3 243 12.4
2005-04-04 10:26:03 51°14.321 2°49.923 241.9 3 242 12.4
2005-04-04 10:26:08 51°14.32 2°49.917 241.4 3 242 12.4
2005-04-04 10:26:13 51°14.318 2°49.911 241 3 241 12.4
2005-04-04 10:26:18 51°14.316 2°49.906 240.6 3 241 12.4
2005-04-04 10:26:23 51°14.314 2°49.899 240.2 3 241 12.4
2005-04-04 10:26:28 51°14.312 2°49.893 240 3 241 12.4
2005-04-04 10:26:33 51°14.31 2°49.887 239.9 3 241 12.4
2005-04-04 10:26:38 51°14.308 2°49.882 240.1 3 242 12.4
2005-04-04 10:26:43 51°14.306 2°49.876 240.2 3 242 12.4
2005-04-04 10:26:48 51°14.304 2°49.871 240.6 3 243 12.4
2005-04-04 10:26:53 51°14.302 2°49.864 240.9 3 243 12.5
2005-04-04 10:26:58 51°14.3 2°49.859 241.1 3 243 12.4
2005-04-04 10:27:04 51°14.298 2°49.852 241.6 3 243 12.4
2005-04-04 10:27:08 51°14.296 2°49.847 241.7 3 243 12.5
2005-04-04 10:27:13 51°14.295 2°49.841 242.1 3 244 12.4
2005-04-04 10:27:18 51°14.293 2°49.835 242.4 3 243 12.4
2005-04-04 10:27:23 51°14.291 2°49.829 242.5 3 245 12.4
2005-04-04 10:27:28 51°14.289 2°49.823 243 3 245 12.5
2005-04-04 10:27:34 51°14.287 2°49.815 243.1 3 245 12.4
2005-04-04 10:27:38 51°14.286 2°49.81 243.4 3 246 12.4
2005-04-04 10:27:43 51°14.283 2°49.803 243.6 3.1 245 12.5
2005-04-04 10:27:48 51°14.282 2°49.797 243.8 3.1 245 12.5
2005-04-04 10:27:53 51°14.28 2°49.791 244 3.1 246 12.5
2005-04-04 10:27:58 51°14.279 2°49.785 244.5 3.1 247 12.4
2005-04-04 10:28:01 51°14.278 2°49.781 244.6 3.1 247 12.5
2005-04-04 10:28:08 51°14.276 2°49.772 245.1 3.1 248 12.5
2005-04-04 10:28:12 51°14.274 2°49.767 245.3 3.1 248 12.4
2005-04-04 10:28:18 51°14.272 2°49.758 245.6 3.1 249 12.4
2005-04-04 10:28:22 51°14.271 2°49.754 245.9 3.1 249 12.5
2005-04-04 10:28:28 51°14.269 2°49.745 246.1 3.1 249 12.5
2005-04-04 10:28:33 51°14.268 2°49.739 246.4 3.1 249 12.5
2005-04-04 10:28:38 51°14.266 2°49.733 246.6 3.1 249 12.5
2005-04-04 10:28:42 51°14.265 2°49.728 246.8 3.1 250 12.6
2005-04-04 10:28:48 51°14.264 2°49.721 247.2 3.1 250 12.5
2005-04-04 10:28:53 51°14.262 2°49.714 247.5 3.1 250 12.6
2005-04-04 10:28:58 51°14.261 2°49.708 247.6 3.1 251 12.5
2005-04-04 10:29:03 51°14.26 2°49.702 248 3.1 251 12.5
2005-04-04 10:29:08 51°14.258 2°49.695 248.3 3.1 252 12.6
2005-04-04 10:29:13 51°14.257 2°49.688 248.5 3.1 252 12.6
2005-04-04 10:29:18 51°14.256 2°49.681 248.7 3.1 252 12.6
2005-04-04 10:29:24 51°14.254 2°49.674 248.8 3.1 251 12.7
2005-04-04 10:29:28 51°14.253 2°49.668 248.7 3.2 252 12.5
2005-04-04 10:29:33 51°14.252 2°49.662 248.2 3.2 252 12.5
2005-04-04 10:29:38 51°14.251 2°49.655 247.6 3.1 252 12.6
2005-04-04 10:29:44 51°14.249 2°49.648 247.2 3.1 252 12.5
2005-04-04 10:29:48 51°14.248 2°49.642 246.3 3.1 251 12.5
2005-04-04 10:29:53 51°14.246 2°49.635 245.3 3.1 248 12.6
2005-04-04 10:29:58 51°14.245 2°49.63 244.5 3.1 248 12.5
2005-04-04 10:30:04 51°14.243 2°49.622 244.3 3.1 248 12.6
2005-04-04 10:30:08 51°14.242 2°49.617 244.1 3.1 248 12.6
2005-04-04 10:30:12 51°14.24 2°49.611 243.9 3.1 248 12.5
2005-04-04 10:30:18 51°14.238 2°49.604 243.8 3.1 247 12.6
2005-04-04 10:30:23 51°14.237 2°49.597 243.9 3.1 248 12.5
2005-04-04 10:30:28 51°14.235 2°49.591 244 3.1 248 12.5
2005-04-04 10:30:33 51°14.234 2°49.584 244.3 3.1 248 12.6
2005-04-04 10:30:38 51°14.232 2°49.578 244.5 3.1 247 12.6
2005-04-04 10:30:44 51°14.23 2°49.571 244.9 3.1 248 12.6
2005-04-04 10:30:48 51°14.23 2°49.564 245.3 3.1 248 12.6
2005-04-04 10:30:53 51°14.229 2°49.557 245.5 3.1 249 12.6
2005-04-04 10:30:58 51°14.229 2°49.55 246 3.1 249 12.6
2005-04-04 10:31:04 51°14.228 2°49.542 246.2 3.1 250 12.4
2005-04-04 10:31:08 51°14.227 2°49.536 246.6 3.2 250 12.6
2005-04-04 10:31:13 51°14.225 2°49.53 246.9 3.2 251 12.6
2005-04-04 10:31:18 51°14.224 2°49.524 247.4 3.1 251 12.6
2005-04-04 10:31:24 51°14.222 2°49.516 247.6 3.1 252 12.6
2005-04-04 10:31:28 51°14.22 2°49.51 248.1 3.1 252 12.6
2005-04-04 10:31:33 51°14.219 2°49.503 248.6 3.2 253 12.6
2005-04-04 10:31:38 51°14.217 2°49.497 249.5 3.2 253 12.7
2005-04-04 10:31:44 51°14.216 2°49.488 250.6 3.3 256 12.5
2005-04-04 10:31:48 51°14.215 2°49.483 251.9 3.3 257 12.6
2005-04-04 10:31:52 51°14.214 2°49.476 253.5 3.4 258 12.5
2005-04-04 10:31:58 51°14.212 2°49.469 255 3.4 258 12.6
2005-04-04 10:32:04 51°14.211 2°49.46 256.3 3.4 258 12.5
2005-04-04 10:32:08 51°14.211 2°49.453 257.8 3.5 264 12.6
2005-04-04 10:32:13 51°14.21 2°49.446 259.2 3.5 264 12.6
2005-04-04 10:32:18 51°14.21 2°49.439 260.4 3.5 264 12.5
2005-04-04 10:32:22 51°14.21 2°49.433 261.5 3.6 268 12.6
2005-04-04 10:32:28 51°14.21 2°49.423 262.5 3.6 268 12.7
2005-04-04 10:32:33 51°14.21 2°49.416 263.6 3.6 270 12.6
2005-04-04 10:32:38 51°14.21 2°49.408 264.6 3.6 269 12.6
2005-04-04 10:32:44 51°14.21 2°49.399 265.3 3.6 271 12.7
2005-04-04 10:32:48 51°14.211 2°49.392 266.2 3.6 271 12.8
2005-04-04 10:32:52 51°14.211 2°49.386 267.2 3.7 274 12.7
2005-04-04 10:32:58 51°14.211 2°49.377 268.2 3.7 275 12.6
2005-04-04 10:33:04 51°14.212 2°49.367 268.9 3.7 275 12.7
2005-04-04 10:33:08 51°14.212 2°49.36 269.6 3.7 277 12.8
2005-04-04 10:33:12 51°14.213 2°49.353 270.6 3.7 277 12.8
2005-04-04 10:33:18 51°14.214 2°49.343 271.4 3.7 278 12.8
2005-04-04 10:33:22 51°14.214 2°49.338 272.3 3.7 280 12.8
2005-04-04 10:33:28 51°14.215 2°49.327 273.3 3.7 280 12.8
2005-04-04 10:33:32 51°14.216 2°49.321 274.3 3.8 283 12.8
2005-04-04 10:33:38 51°14.217 2°49.312 275.7 3.8 283 12.9
2005-04-04 10:33:44 51°14.219 2°49.302 277.2 3.8 283 12.8
2005-04-04 10:33:48 51°14.22 2°49.296 278.9 3.8 286 13
2005-04-04 10:33:53 51°14.222 2°49.287 280.6 3.8 287 12.9
2005-04-04 10:33:58 51°14.224 2°49.279 282 3.8 287 13
2005-04-04 10:34:03 51°14.226 2°49.271 284.4 3.9 292 13
2005-04-04 10:34:08 51°14.228 2°49.263 286.2 3.9 293 13
2005-04-04 10:34:13 51°14.231 2°49.255 288.1 3.9 294 13.1
2005-04-04 10:34:18 51°14.233 2°49.248 290.1 3.9 298 13.1
2005-04-04 10:34:23 51°14.236 2°49.24 291.9 4 299 13.1
2005-04-04 10:34:28 51°14.239 2°49.232 293.8 4 299 13.2
2005-04-04 10:34:32 51°14.241 2°49.226 295.4 4.1 301 13.1
2005-04-04 10:34:37 51°14.244 2°49.219 296.9 4 302 13.2
2005-04-04 10:34:43 51°14.248 2°49.211 298.3 4 302 13.1
2005-04-04 10:34:48 51°14.251 2°49.204 299.5 4 302 13
2005-04-04 10:34:54 51°14.254 2°49.197 301.3 3.7 307 12.9
2005-04-04 10:34:58 51°14.257 2°49.193 302.3 3.5 309 12.9
2005-04-04 10:35:04 51°14.261 2°49.186 303.3 3.5 309 13
2005-04-04 10:35:08 51°14.263 2°49.182 304 3.3 312 13
2005-04-04 10:35:13 51°14.266 2°49.176 304.7 3.3 312 13.1
2005-04-04 10:35:18 51°14.269 2°49.171 305.4 3.2 314 13.1
2005-04-04 10:35:24 51°14.273 2°49.166 305.7 3.2 314 13.1
2005-04-04 10:35:28 51°14.275 2°49.161 306.4 3 316 13.2
2005-04-04 10:35:33 51°14.278 2°49.157 307 3 316 13.2
2005-04-04 10:35:38 51°14.281 2°49.152 307.5 3 316 13.2
2005-04-04 10:35:43 51°14.284 2°49.149 307.7 2.8 318 13.2
2005-04-04 10:35:48 51°14.287 2°49.145 308.1 2.8 319 13.2
2005-04-04 10:35:53 51°14.29 2°49.141 308.3 2.7 319 13.3
2005-04-04 10:35:58 51°14.292 2°49.137 308.4 2.7 320 13.3
2005-04-04 10:36:04 51°14.295 2°49.133 308.6 2.7 320 13.2
2005-04-04 10:36:08 51°14.298 2°49.13 308.6 2.7 320 13.2
2005-04-04 10:36:12 51°14.3 2°49.127 308.6 2.5 321 13.3
2005-04-04 10:36:18 51°14.303 2°49.123 308.6 2.5 322 13.3
2005-04-04 10:36:23 51°14.306 2°49.119 308.5 2.4 322 13.3
2005-04-04 10:36:29 51°14.309 2°49.116 308.4 2.4 322 13.2
2005-04-04 10:36:33 51°14.311 2°49.113 308.3 2.4 322 13.1
2005-04-04 10:36:38 51°14.313 2°49.11 308.2 2.4 322 13.2
2005-04-04 10:36:44 51°14.316 2°49.106 308 2.3 323 13.2
2005-04-04 10:36:48 51°14.318 2°49.104 307.7 2.3 324 13.2
2005-04-04 10:36:53 51°14.321 2°49.101 307.5 2.2 323 13.3
2005-04-04 10:36:58 51°14.323 2°49.098 307.3 2.2 323 13.3
2005-04-04 10:37:04 51°14.326 2°49.095 307 2.2 324 13.3
2005-04-04 10:37:08 51°14.327 2°49.093 306.9 2.1 324 13.3
2005-04-04 10:37:14 51°14.33 2°49.09 306.7 2 324 13.2
2005-04-04 10:37:18 51°14.332 2°49.088 306.2 2 324 13.3
2005-04-04 10:37:23 51°14.334 2°49.086 306.1 2 324 13.3
2005-04-04 10:37:28 51°14.337 2°49.083 306 2 325 13.3
2005-04-04 10:37:33 51°14.339 2°49.081 305.8 2 325 13.3
2005-04-04 10:37:38 51°14.341 2°49.079 305.6 2 325 13.2
2005-04-04 10:37:42 51°14.343 2°49.077 305.5 1.8 326 13.3
2005-04-04 10:37:48 51°14.345 2°49.074 305.3 1.8 326 13.4
2005-04-04 10:37:53 51°14.347 2°49.072 305.3 1.8 326 13.3
2005-04-04 10:37:58 51°14.349 2°49.07 305.2 1.8 326 13.3
2005-04-04 10:38:02 51°14.351 2°49.068 304.9 1.8 329 13.3
2005-04-04 10:38:08 51°14.353 2°49.066 304.8 1.8 329 13.3
2005-04-04 10:38:12 51°14.355 2°49.064 304.8 1.7 329 13.2
2005-04-04 10:38:18 51°14.357 2°49.062 304.6 1.7 327 13.3
2005-04-04 10:38:22 51°14.359 2°49.06 304.5 1.7 328 13.3
2005-04-04 10:38:28 51°14.361 2°49.058 304.3 1.6 329 13.2
2005-04-04 10:38:32 51°14.363 2°49.057 304.3 1.6 329 13.2
2005-04-04 10:38:38 51°14.365 2°49.055 304.1 1.6 329 13.3
2005-04-04 10:38:43 51°14.367 2°49.053 304.1 1.5 329 13.3
2005-04-04 10:38:48 51°14.368 2°49.052 303.9 1.5 330 13.3
2005-04-04 10:38:54 51°14.37 2°49.05 303.8 1.5 329 13.3
2005-04-04 10:38:58 51°14.372 2°49.048 303.6 1.5 330 13.3
2005-04-04 10:39:03 51°14.374 2°49.047 303.5 1.5 330 13.3
2005-04-04 10:39:08 51°14.376 2°49.045 303.3 1.5 332 13.3
2005-04-04 10:39:13 51°14.377 2°49.044 303.3 1.4 331 13.3
2005-04-04 10:39:18 51°14.379 2°49.042 303.2 1.5 332 13.3
2005-04-04 10:39:23 51°14.382 2°49.04 303.1 1.7 329 13.3
2005-04-04 10:39:28 51°14.384 2°49.036 303.4 2.2 322 13.3
2005-04-04 10:39:34 51°14.388 2°49.031 305.3 2.5 321 13.3
2005-04-04 10:39:38 51°14.391 2°49.026 309.4 3.3 318 13.2
2005-04-04 10:39:42 51°14.395 2°49.022 314.2 4.3 322 13.3
2005-04-04 10:39:48 51°14.403 2°49.014 319.5 4.3 322 13.3
2005-04-04 10:39:53 51°14.41 2°49.008 324.1 5.2 329 13.3
2005-04-04 10:39:58 51°14.417 2°49.004 330.9 5.7 335 13.3
2005-04-04 10:40:04 51°14.427 2°48.999 336.8 5.7 335 13.3
2005-04-04 10:40:08 51°14.435 2°48.997 341.8 6.4 346 13.4
2005-04-04 10:40:12 51°14.442 2°48.996 348.1 6.6 351 13.4
2005-04-04 10:40:18 51°14.453 2°48.996 355.6 6.6 351 13.4
2005-04-04 10:40:23 51°14.464 2°48.997 1.8 6.6 351 13.5
2005-04-04 10:40:28 51°14.474 2°49.001 6.7 7.4 10 13.4
2005-04-04 10:40:33 51°14.484 2°49.006 13 7.5 14 13.5
2005-04-04 10:40:38 51°14.493 2°49.013 19.2 7.5 14 13.4
2005-04-04 10:40:43 51°14.504 2°49.022 26.8 7.9 26 13.5
2005-04-04 10:40:48 51°14.513 2°49.033 33.2 8 33 13.5
2005-04-04 10:40:53 51°14.521 2°49.045 39.9 8.1 37 13.5
2005-04-04 10:40:57 51°14.528 2°49.055 43.9 8.2 41 13.5
2005-04-04 10:41:03 51°14.539 2°49.071 45.7 8.2 41 13.6
2005-04-04 10:41:08 51°14.548 2°49.084 46.4 9.4 43 13.6
2005-04-04 10:41:13 51°14.559 2°49.1 46.6 9.6 43 13.6
2005-04-04 10:41:18 51°14.569 2°49.115 46.4 9.6 43 13.5
2005-04-04 10:41:23 51°14.581 2°49.132 46.3 10.5 42 13.6
2005-04-04 10:41:29 51°14.594 2°49.15 45.5 10.5 42 13.6
2005-04-04 10:41:32 51°14.603 2°49.161 44.8 11.3 41 13.5
2005-04-04 10:41:38 51°14.616 2°49.179 44 11.5 41 13.6
2005-04-04 10:41:44 51°14.631 2°49.2 43.5 11.5 41 13.6
2005-04-04 10:41:48 51°14.642 2°49.216 43.8 11.7 40 13.6
2005-04-04 10:41:54 51°14.655 2°49.235 45.7 11.9 43 13.6
2005-04-04 10:41:58 51°14.665 2°49.251 46.4 12 43 13.7
2005-04-04 10:42:03 51°14.678 2°49.271 47.7 12.1 45 13.7
2005-04-04 10:42:08 51°14.689 2°49.291 48.4 12.1 45 13.7
2005-04-04 10:42:13 51°14.7 2°49.308 49.3 12.2 47 13.7
2005-04-04 10:42:18 51°14.712 2°49.328 49.7 12.2 45 13.7
2005-04-04 10:42:22 51°14.721 2°49.344 50.1 12.4 46 13.7
2005-04-04 10:42:28 51°14.737 2°49.371 50.1 12.7 47 13.8
2005-04-04 10:42:33 51°14.75 2°49.392 50.3 12.9 47 13.7
2005-04-04 10:42:38 51°14.761 2°49.412 50.4 13.2 47 13.7
2005-04-04 10:42:43 51°14.775 2°49.435 50.2 13.4 47 13.7
2005-04-04 10:42:48 51°14.787 2°49.455 49.6 13.5 46 13.7
2005-04-04 10:42:53 51°14.802 2°49.479 49.7 13.6 46 13.7
2005-04-04 10:42:58 51°14.813 2°49.499 50 13.6 46 13.7
2005-04-04 10:43:03 51°14.827 2°49.523 49.9 13.8 47 13.7
2005-04-04 10:43:08 51°14.84 2°49.547 51.5 13.8 50 13.7
2005-04-04 10:43:13 51°14.852 2°49.57 52.8 13.8 50 13.7
2005-04-04 10:43:18 51°14.865 2°49.594 53.7 13.9 51 13.7
2005-04-04 10:43:23 51°14.876 2°49.618 54.4 13.9 51 13.8
2005-04-04 10:43:28 51°14.888 2°49.642 55.2 13.9 52 13.8
2005-04-04 10:43:33 51°14.9 2°49.666 55.4 13.9 52 13.8
2005-04-04 10:43:38 51°14.91 2°49.689 55.6 13.9 53 13.8
2005-04-04 10:43:42 51°14.92 2°49.708 56 13.9 52 13.8
2005-04-04 10:43:48 51°14.935 2°49.739 56 13.9 52 13.8
2005-04-04 10:43:54 51°14.948 2°49.766 55.8 13.9 52 13.9
2005-04-04 10:43:58 51°14.959 2°49.789 55.8 13.9 53 13.9
2005-04-04 10:44:04 51°14.971 2°49.815 56 13.9 53 13.9
2005-04-04 10:44:08 51°14.982 2°49.838 56.2 13.9 53 13.8
2005-04-04 10:44:13 51°14.992 2°49.86 56.2 13.9 53 13.9
2005-04-04 10:44:18 51°15.003 2°49.885 56.7 13.9 54 13.9
2005-04-04 10:44:22 51°15.012 2°49.905 58.3 13.9 56 13.9
2005-04-04 10:44:28 51°15.025 2°49.939 59.9 13.9 56 14
2005-04-04 10:44:33 51°15.034 2°49.966 62 13.9 61 13.9
2005-04-04 10:44:38 51°15.042 2°49.991 64.6 13.9 61 13.9
2005-04-04 10:44:43 51°15.052 2°50.021 66.1 13.9 64 13.9
2005-04-04 10:44:48 51°15.06 2°50.049 67.8 13.9 64 13.9
2005-04-04 10:44:54 51°15.069 2°50.08 68.5 13.9 66 13.8
2005-04-04 10:44:58 51°15.075 2°50.103 69.3 13.9 66 13.9
2005-04-04 10:45:04 51°15.084 2°50.136 69.9 13.9 66 13.9
2005-04-04 10:45:08 51°15.09 2°50.159 70.4 13.9 67 13.8
2005-04-04 10:45:12 51°15.097 2°50.184 70.8 13.9 67 13.9
2005-04-04 10:45:18 51°15.106 2°50.219 70.5 13.9 67 13.8
2005-04-04 10:45:23 51°15.114 2°50.246 70.2 13.9 66 13.8
2005-04-04 10:45:28 51°15.122 2°50.274 70 14 66 13.8
2005-04-04 10:45:33 51°15.129 2°50.3 69.8 14 66 13.8
2005-04-04 10:45:38 51°15.137 2°50.328 69.6 14 66 13.7
2005-04-04 10:45:43 51°15.146 2°50.359 69.6 14 65 13.8
2005-04-04 10:45:48 51°15.155 2°50.387 69.3 14 65 13.8
2005-04-04 10:45:53 51°15.163 2°50.415 69 14 65 13.8
2005-04-04 10:45:58 51°15.171 2°50.444 69.1 14.1 65 13.8
2005-04-04 10:46:02 51°15.177 2°50.463 69.7 14.1 65 13.8
2005-04-04 10:46:08 51°15.187 2°50.497 70.1 14.1 65 13.8
2005-04-04 10:46:13 51°15.195 2°50.529 70.4 14.1 66 13.8
2005-04-04 10:46:18 51°15.202 2°50.554 70.5 14.1 66 13.8
2005-04-04 10:46:23 51°15.211 2°50.586 70.7 14.1 66 13.8
2005-04-04 10:46:28 51°15.219 2°50.614 70.7 14.1 66 13.8
2005-04-04 10:46:33 51°15.227 2°50.64 70.7 14.1 66 13.8
2005-04-04 10:46:38 51°15.235 2°50.668 70 14.1 65 13.8
2005-04-04 10:46:44 51°15.245 2°50.702 69.5 14.1 65 13.8
2005-04-04 10:46:48 51°15.252 2°50.727 69.3 14.1 65 13.8
2005-04-04 10:46:53 51°15.261 2°50.755 69.2 14.1 65 13.8
2005-04-04 10:46:58 51°15.268 2°50.781 69.3 14.1 65 13.8
2005-04-04 10:47:02 51°15.275 2°50.807 69.9 14.1 66 13.9
2005-04-04 10:47:08 51°15.285 2°50.84 70.1 14.1 65 13.8
2005-04-04 10:47:13 51°15.293 2°50.869 70.1 14.1 66 13.8
2005-04-04 10:47:18 51°15.3 2°50.894 70.1 14 66 13.8
2005-04-04 10:47:22 51°15.306 2°50.917 70.3 14 66 13.8
2005-04-04 10:47:28 51°15.317 2°50.954 70.5 14.1 66 13.8
2005-04-04 10:47:34 51°15.326 2°50.985 70.4 14.1 66 13.8
2005-04-04 10:47:38 51°15.333 2°51.011 70.1 14 65 13.8
2005-04-04 10:47:43 51°15.34 2°51.036 69.9 14 66 13.8
2005-04-04 10:47:48 51°15.349 2°51.067 70 14 66 13.7
2005-04-04 10:47:52 51°15.356 2°51.089 69.4 14 65 13.8
2005-04-04 10:47:58 51°15.365 2°51.12 68.9 14 65 13.8
2005-04-04 10:48:04 51°15.375 2°51.154 69 14 65 13.7
2005-04-04 10:48:08 51°15.382 2°51.18 69.6 14 66 13.8
2005-04-04 10:48:13 51°15.39 2°51.208 69.7 14 66 13.8
2005-04-04 10:48:18 51°15.398 2°51.237 69.9 14 66 13.8
2005-04-04 10:48:22 51°15.403 2°51.256 70 14 66 13.8
2005-04-04 10:48:28 51°15.414 2°51.293 69.9 14 66 13.7
2005-04-04 10:48:34 51°15.423 2°51.323 69.4 14 66 13.7
2005-04-04 10:48:38 51°15.43 2°51.346 68.9 14 65 13.7
2005-04-04 10:48:43 51°15.439 2°51.377 69.1 14 65 13.8
2005-04-04 10:48:48 51°15.446 2°51.402 69.4 14 66 13.7
2005-04-04 10:48:52 51°15.453 2°51.428 69.7 14 66 13.7
2005-04-04 10:48:58 51°15.462 2°51.459 69.8 14.1 66 13.6
2005-04-04 10:49:03 51°15.471 2°51.49 69.6 14 66 13.7
2005-04-04 10:49:08 51°15.478 2°51.515 69.6 14 66 13.7
2005-04-04 10:49:13 51°15.487 2°51.546 69.6 14 66 13.7
2005-04-04 10:49:18 51°15.495 2°51.572 69.6 14 65 14
2005-04-04 10:49:22 51°15.501 2°51.594 69.3 14 65 13.6
2005-04-04 10:49:28 51°15.512 2°51.63 68.9 14 65 13.6
2005-04-04 10:49:32 51°15.518 2°51.653 68.9 14 65 13.6
2005-04-04 10:49:38 51°15.528 2°51.687 69.1 14 65 13.6
2005-04-04 10:49:44 51°15.536 2°51.718 69.8 14 66 13.6